Terminal Aerodrome Forecast
Issued by NWS Cleveland, OH

Home | Current Version | Previous Version | Graphics & Text | Print | Product List | Glossary On
Versions: 1 2 3 4 5 6 7 8 9 10 11 12 13 14 15 16 17 18 19 20 21 22 23
000
FTUS41 KCLE 191740
TAFTOL
TAF
KTOL 191740Z 1918/2018 27008KT P6SM SKC
     FM200000 01005KT P6SM SKC
     FM201000 09003KT 3SM BR SKC
     FM201400 09005KT P6SM SCT250=

USA.gov is the U.S. government's official web portal to all federal, state and local government web resources and services.